createdAt,value
2019-04-06T00:00:46.910Z,56.58
2019-04-06T00:01:54.837Z,55.73
2019-04-06T00:02:58.569Z,55.78
2019-04-06T00:04:02.307Z,55.55
2019-04-06T00:05:07.218Z,54.03
2019-04-06T00:06:10.827Z,56.98
2019-04-06T00:07:14.468Z,52.93
2019-04-06T00:08:18.083Z,55.45
2019-04-06T00:09:21.779Z,55.85
2019-04-06T00:10:25.388Z,57.23
2019-04-06T00:11:29.013Z,55.98
2019-04-06T00:12:32.659Z,56.80
2019-04-06T00:13:36.354Z,53.05
2019-04-06T00:14:39.925Z,53.92
2019-04-06T00:15:43.533Z,53.17
2019-04-06T00:16:47.218Z,55.28
2019-04-06T00:17:50.825Z,52.23
2019-04-06T00:18:54.488Z,55.28
2019-04-06T00:19:58.106Z,54.00
2019-04-06T00:21:01.706Z,52.80
2019-04-06T00:22:05.617Z,55.85
2019-04-06T00:23:09.170Z,53.95
2019-04-06T00:24:12.847Z,53.23
2019-04-06T00:25:16.697Z,55.70
2019-04-06T00:26:20.371Z,54.70
2019-04-06T00:27:24.695Z,54.67
2019-04-06T00:28:28.440Z,57.23
2019-04-06T00:29:32.046Z,56.37
2019-04-06T00:30:43.210Z,52.95
2019-04-06T00:31:54.092Z,53.92
2019-04-06T00:33:04.845Z,57.48
2019-04-06T00:34:08.503Z,55.12
2019-04-06T00:35:12.107Z,55.85
2019-04-06T00:36:15.787Z,58.02
2019-04-06T00:37:19.508Z,59.73
2019-04-06T00:38:23.113Z,56.68
2019-04-06T00:39:26.795Z,55.70
2019-04-06T00:40:30.409Z,58.10
2019-04-06T00:41:34.080Z,57.45
2019-04-06T00:42:37.670Z,55.80
2019-04-06T00:43:41.278Z,55.50
2019-04-06T00:44:44.941Z,55.80
2019-04-06T00:45:48.544Z,52.85
2019-04-06T00:46:52.169Z,54.77
2019-04-06T00:47:55.755Z,54.85
2019-04-06T00:48:59.413Z,54.75
2019-04-06T00:50:03.379Z,54.05
2019-04-06T00:51:07.032Z,53.75
2019-04-06T00:52:10.633Z,54.40
2019-04-06T00:53:14.300Z,54.80
2019-04-06T00:54:17.931Z,52.50
2019-04-06T00:55:21.557Z,53.15
2019-04-06T00:56:25.165Z,53.85
2019-04-06T00:57:28.768Z,51.90
2019-04-06T00:58:32.440Z,55.55
2019-04-06T00:59:36.049Z,53.02
2019-04-06T01:00:39.709Z,53.20
2019-04-06T01:01:43.363Z,54.25
2019-04-06T01:02:47.126Z,54.88
2019-04-06T01:03:50.741Z,56.53
2019-04-06T01:04:54.378Z,54.27
2019-04-06T01:05:57.986Z,54.60
2019-04-06T01:07:01.736Z,53.50
2019-04-06T01:08:05.500Z,51.73
2019-04-06T01:09:10.095Z,54.75
2019-04-06T01:10:15.501Z,53.15
2019-04-06T01:11:19.181Z,54.67
2019-04-06T01:12:22.826Z,53.65
2019-04-06T01:13:26.430Z,54.40
2019-04-06T01:14:30.045Z,52.90
2019-04-06T01:15:33.780Z,52.00
2019-04-06T01:16:37.397Z,55.25
2019-04-06T01:17:41.054Z,53.02
2019-04-06T01:18:44.669Z,52.15
2019-04-06T01:19:48.335Z,52.40
2019-04-06T01:20:52.168Z,51.85
2019-04-06T01:21:55.816Z,52.03
2019-04-06T01:22:59.487Z,52.40
2019-04-06T01:24:03.170Z,54.20
2019-04-06T01:25:07.587Z,55.45
2019-04-06T01:26:11.189Z,52.03
2019-04-06T01:27:14.804Z,54.35
2019-04-06T01:28:18.432Z,56.23
2019-04-06T01:29:22.098Z,52.23
2019-04-06T01:30:25.692Z,51.80
2019-04-06T01:31:29.425Z,53.08
2019-04-06T01:32:33.065Z,53.78
2019-04-06T01:33:36.747Z,52.78
2019-04-06T01:34:40.382Z,54.33
2019-04-06T01:35:43.987Z,53.87
2019-04-06T01:36:47.638Z,56.37
2019-04-06T01:37:51.248Z,55.43
2019-04-06T01:38:54.861Z,56.60
2019-04-06T01:39:58.472Z,65.55
2019-04-06T01:41:02.135Z,60.10
2019-04-06T01:42:05.824Z,53.85
2019-04-06T01:43:09.426Z,54.48
2019-04-06T01:44:13.098Z,55.03
2019-04-06T01:45:16.693Z,53.78
2019-04-06T01:46:20.341Z,55.50
2019-04-06T01:47:24.058Z,55.40
2019-04-06T01:48:27.713Z,56.25
2019-04-06T01:49:31.319Z,57.45
2019-04-06T01:50:34.927Z,55.73
2019-04-06T01:51:38.565Z,56.45
2019-04-06T01:52:42.216Z,58.28
2019-04-06T01:53:45.837Z,58.02
2019-04-06T01:54:49.453Z,57.05
2019-04-06T01:55:53.107Z,57.17
2019-04-06T01:56:56.755Z,54.23
2019-04-06T01:58:00.434Z,53.15
2019-04-06T01:59:04.046Z,53.55
2019-04-06T02:00:12.267Z,54.25
2019-04-06T02:01:17.554Z,53.30
2019-04-06T02:02:35.033Z,54.30
2019-04-06T02:03:38.813Z,52.88
2019-04-06T02:04:42.430Z,53.75
2019-04-06T02:05:46.039Z,52.95
2019-04-06T02:06:49.715Z,54.05
2019-04-06T02:07:53.316Z,54.00
2019-04-06T02:08:56.939Z,50.12
2019-04-06T02:10:00.580Z,54.27
2019-04-06T02:11:04.645Z,52.75
2019-04-06T02:12:08.252Z,51.55
2019-04-06T02:13:11.852Z,52.13
2019-04-06T02:14:15.456Z,54.45
2019-04-06T02:15:19.182Z,54.30
2019-04-06T02:16:22.824Z,55.35
2019-04-06T02:17:26.488Z,55.10
2019-04-06T02:18:30.055Z,51.95
2019-04-06T02:19:33.667Z,54.90
2019-04-06T02:20:37.324Z,56.15
2019-04-06T02:21:40.977Z,53.52
2019-04-06T02:22:44.576Z,56.80
2019-04-06T02:23:48.187Z,55.25
2019-04-06T02:24:51.806Z,54.50
2019-04-06T02:25:55.452Z,53.78
2019-04-06T02:26:59.234Z,55.67
2019-04-06T02:28:02.838Z,54.10
2019-04-06T02:29:06.450Z,55.05
2019-04-06T02:30:23.812Z,56.55
2019-04-06T02:31:45.555Z,53.10
2019-04-06T02:33:06.872Z,51.42
2019-04-06T02:34:30.196Z,54.65
2019-04-06T02:35:53.833Z,52.43
2019-04-06T02:37:07.609Z,52.80
2019-04-06T02:38:18.688Z,53.05
2019-04-06T02:39:39.033Z,54.23
2019-04-06T02:40:53.410Z,52.27
2019-04-06T02:41:58.730Z,52.60
2019-04-06T02:43:04.019Z,52.48
2019-04-06T02:44:07.693Z,55.78
2019-04-06T02:45:11.499Z,54.55
2019-04-06T02:46:15.072Z,54.03
2019-04-06T02:47:18.734Z,54.42
2019-04-06T02:48:22.394Z,55.23
2019-04-06T02:49:26.061Z,54.60
2019-04-06T02:50:29.726Z,55.55
2019-04-06T02:51:33.331Z,53.83
2019-04-06T02:52:36.936Z,56.15
2019-04-06T02:53:40.549Z,58.25
2019-04-06T02:54:44.210Z,57.50
2019-04-06T02:55:47.881Z,54.65
2019-04-06T02:56:51.481Z,56.70
2019-04-06T02:57:55.191Z,54.80
2019-04-06T02:58:58.878Z,58.15
2019-04-06T03:00:02.656Z,57.48
2019-04-06T03:01:06.399Z,59.35
2019-04-06T03:02:09.956Z,58.70
2019-04-06T03:03:13.851Z,59.10
2019-04-06T03:04:17.527Z,59.63
2019-04-06T03:05:21.182Z,58.75
2019-04-06T03:06:24.851Z,60.05
2019-04-06T03:07:28.618Z,58.30
2019-04-06T03:08:32.212Z,57.80
2019-04-06T03:09:35.881Z,58.42
2019-04-06T03:10:39.684Z,59.40
2019-04-06T03:11:43.375Z,58.15
2019-04-06T03:12:47.166Z,60.33
2019-04-06T03:13:50.791Z,59.20
2019-04-06T03:14:54.437Z,59.70
2019-04-06T03:15:58.399Z,58.73
2019-04-06T03:17:01.940Z,58.25
2019-04-06T03:18:05.702Z,57.58
2019-04-06T03:19:09.486Z,57.00
2019-04-06T03:20:13.272Z,54.03
2019-04-06T03:21:16.884Z,56.23
2019-04-06T03:22:20.496Z,53.60
2019-04-06T03:23:25.333Z,51.02
2019-04-06T03:24:29.400Z,49.95
2019-04-06T03:25:32.977Z,50.20
2019-04-06T03:26:36.616Z,47.48
2019-04-06T03:27:40.309Z,49.33
2019-04-06T03:28:44.484Z,48.68
2019-04-06T03:29:57.967Z,49.80
2019-04-06T03:30:53.371Z,46.92
2019-04-06T03:31:57.121Z,47.98
2019-04-06T03:33:01.009Z,45.28
2019-04-06T03:34:04.721Z,48.65
2019-04-06T03:35:08.984Z,46.85
2019-04-06T03:36:12.606Z,43.52
2019-04-06T03:37:16.213Z,44.67
2019-04-06T03:38:19.831Z,44.03
2019-04-06T03:39:23.639Z,46.00
2019-04-06T03:40:27.290Z,45.08
2019-04-06T03:41:30.906Z,46.42
2019-04-06T03:42:34.552Z,45.45
2019-04-06T03:43:38.110Z,46.05
2019-04-06T03:44:41.723Z,45.40
2019-04-06T03:45:45.361Z,47.65
2019-04-06T03:46:49.086Z,46.10
2019-04-06T03:47:52.684Z,45.38
2019-04-06T03:48:56.344Z,45.30
2019-04-06T03:50:00.295Z,44.18
2019-04-06T03:51:03.956Z,46.55
2019-04-06T03:52:07.568Z,48.30
2019-04-06T03:53:11.234Z,47.73
2019-04-06T03:54:14.843Z,47.58
2019-04-06T03:55:18.476Z,46.10
2019-04-06T03:56:22.694Z,48.68
2019-04-06T03:57:26.349Z,48.28
2019-04-06T03:58:30.171Z,47.58
2019-04-06T03:59:33.735Z,46.30
2019-04-06T04:00:37.344Z,47.62
2019-04-06T04:01:41.000Z,45.98
2019-04-06T04:02:44.623Z,46.95
2019-04-06T04:03:48.298Z,46.75
2019-04-06T04:04:51.836Z,46.30
2019-04-06T04:05:55.444Z,45.80
2019-04-06T04:06:59.111Z,48.95
2019-04-06T04:08:02.707Z,49.05
2019-04-06T04:09:06.652Z,46.88
2019-04-06T04:10:11.863Z,46.98
2019-04-06T04:11:15.515Z,46.05
2019-04-06T04:12:19.122Z,48.87
2019-04-06T04:13:22.731Z,50.10
2019-04-06T04:14:26.332Z,48.73
2019-04-06T04:15:30.023Z,47.17
2019-04-06T04:16:33.605Z,47.35
2019-04-06T04:17:37.293Z,50.98
2019-04-06T04:18:40.871Z,50.40
2019-04-06T04:19:44.488Z,50.00
2019-04-06T04:20:48.087Z,48.73
2019-04-06T04:21:51.686Z,51.40
2019-04-06T04:22:55.338Z,47.65
2019-04-06T04:23:58.949Z,50.30
2019-04-06T04:25:02.560Z,52.20
2019-04-06T04:26:06.236Z,50.28
2019-04-06T04:27:09.839Z,52.78
2019-04-06T04:28:13.512Z,52.58
2019-04-06T04:29:17.111Z,49.85
2019-04-06T04:30:32.223Z,47.90
2019-04-06T04:31:26.156Z,46.23
2019-04-06T04:32:30.005Z,46.20
2019-04-06T04:33:33.794Z,46.13
2019-04-06T04:34:37.666Z,44.45
2019-04-06T04:35:41.503Z,43.05
2019-04-06T04:36:45.479Z,43.40
2019-04-06T04:37:49.093Z,40.40
2019-04-06T04:38:52.681Z,41.77
2019-04-06T04:39:56.340Z,41.95
2019-04-06T04:40:59.957Z,42.05
2019-04-06T04:42:03.631Z,40.90
2019-04-06T04:43:07.316Z,39.00
2019-04-06T04:44:10.918Z,40.43
2019-04-06T04:45:14.796Z,40.05
2019-04-06T04:46:18.366Z,38.35
2019-04-06T04:47:22.290Z,37.23
2019-04-06T04:48:26.127Z,38.25
2019-04-06T04:49:29.717Z,37.55
2019-04-06T04:50:33.518Z,36.93
2019-04-06T04:51:37.252Z,37.13
2019-04-06T04:52:40.882Z,35.28
2019-04-06T04:53:44.515Z,36.93
2019-04-06T04:54:48.172Z,37.95
2019-04-06T04:55:51.785Z,36.23
2019-04-06T04:56:55.403Z,35.90
2019-04-06T04:57:59.185Z,35.95
2019-04-06T04:59:02.778Z,36.30
2019-04-06T05:00:07.265Z,37.78
2019-04-06T05:01:10.876Z,37.20
2019-04-06T05:02:14.508Z,37.30
2019-04-06T05:03:18.128Z,37.53
2019-04-06T05:04:21.736Z,36.60
2019-04-06T05:05:25.338Z,40.67
2019-04-06T05:06:29.058Z,39.15
2019-04-06T05:07:32.705Z,40.38
2019-04-06T05:08:36.345Z,39.88
2019-04-06T05:09:40.023Z,39.20
2019-04-06T05:10:43.823Z,39.48
2019-04-06T05:11:49.039Z,39.60
2019-04-06T05:12:52.768Z,38.60
2019-04-06T05:14:32.857Z,38.10
2019-04-06T05:15:45.093Z,38.02
2019-04-06T05:16:48.749Z,38.02
2019-04-06T05:17:52.403Z,35.95
2019-04-06T05:18:56.016Z,36.53
2019-04-06T05:20:00.185Z,36.23
2019-04-06T05:21:03.771Z,34.95
2019-04-06T05:22:07.370Z,37.00
2019-04-06T05:23:11.032Z,36.77
2019-04-06T05:24:14.619Z,35.55
2019-04-06T05:25:18.298Z,35.40
2019-04-06T05:26:22.123Z,35.75
2019-04-06T05:27:26.012Z,36.15
2019-04-06T05:28:29.718Z,36.45
2019-04-06T05:29:33.662Z,37.15
2019-04-06T05:30:37.343Z,37.63
2019-04-06T05:31:40.983Z,36.13
2019-04-06T05:32:44.856Z,38.17
2019-04-06T05:33:48.454Z,38.10
2019-04-06T05:34:52.067Z,34.53
2019-04-06T05:35:55.678Z,35.40
2019-04-06T05:36:59.335Z,36.55
2019-04-06T05:38:02.941Z,36.25
2019-04-06T05:39:06.547Z,35.90
2019-04-06T05:40:10.291Z,37.17
2019-04-06T05:41:13.901Z,35.90
2019-04-06T05:42:17.521Z,34.85
2019-04-06T05:43:21.120Z,35.60
2019-04-06T05:44:24.736Z,34.78
2019-04-06T05:45:28.386Z,34.73
2019-04-06T05:46:31.988Z,36.70
2019-04-06T05:47:35.593Z,35.78
2019-04-06T05:48:39.202Z,34.40
2019-04-06T05:49:42.877Z,34.92
2019-04-06T05:50:46.479Z,34.38
2019-04-06T05:51:50.096Z,31.30
2019-04-06T05:52:53.697Z,34.45
2019-04-06T05:53:57.349Z,34.85
2019-04-06T05:55:00.948Z,33.55
2019-04-06T05:56:04.700Z,34.05
2019-04-06T05:57:08.302Z,38.20
2019-04-06T05:58:11.949Z,33.92
2019-04-06T05:59:15.552Z,35.45
2019-04-06T06:00:19.280Z,34.73
2019-04-06T06:01:22.920Z,35.95
2019-04-06T06:02:26.496Z,37.10
2019-04-06T06:03:30.275Z,35.95
2019-04-06T06:04:33.858Z,38.60
2019-04-06T06:05:40.313Z,36.48
2019-04-06T06:06:42.833Z,37.75
2019-04-06T06:07:46.434Z,37.08
2019-04-06T06:08:50.110Z,38.28
2019-04-06T06:09:53.847Z,36.48
2019-04-06T06:10:57.608Z,36.93
2019-04-06T06:12:01.451Z,37.40
2019-04-06T06:13:05.152Z,33.23
2019-04-06T06:14:08.788Z,33.92
2019-04-06T06:15:12.639Z,35.28
2019-04-06T06:16:16.235Z,35.00
2019-04-06T06:17:19.961Z,34.63
2019-04-06T06:18:27.440Z,32.83
2019-04-06T06:19:28.871Z,34.45
2019-04-06T06:20:32.472Z,32.40
2019-04-06T06:21:36.257Z,33.53
2019-04-06T06:22:40.289Z,36.48
2019-04-06T06:23:43.859Z,33.08
2019-04-06T06:24:47.503Z,36.20
2019-04-06T06:25:51.102Z,36.55
2019-04-06T06:26:54.842Z,34.95
2019-04-06T06:27:58.453Z,36.93
2019-04-06T06:29:02.066Z,36.53
2019-04-06T06:30:07.477Z,34.18
2019-04-06T06:31:11.083Z,37.13
2019-04-06T06:32:14.782Z,36.08
2019-04-06T06:33:18.387Z,35.30
2019-04-06T06:34:22.000Z,35.80
2019-04-06T06:35:25.707Z,37.75
2019-04-06T06:36:29.317Z,36.05
2019-04-06T06:37:32.924Z,39.92
2019-04-06T06:38:38.928Z,39.20
2019-04-06T06:39:41.846Z,38.08
2019-04-06T06:40:45.532Z,38.48
2019-04-06T06:41:49.156Z,38.70
2019-04-06T06:42:52.839Z,38.92
2019-04-06T06:43:56.528Z,39.30
2019-04-06T06:45:00.140Z,39.80
2019-04-06T06:46:03.819Z,40.55
2019-04-06T06:47:07.550Z,37.33
2019-04-06T06:48:11.098Z,35.83
2019-04-06T06:49:14.756Z,36.08
2019-04-06T06:50:18.430Z,37.05
2019-04-06T06:51:22.034Z,37.38
2019-04-06T06:52:25.759Z,34.15
2019-04-06T06:53:29.350Z,34.63
2019-04-06T06:54:33.234Z,34.33
2019-04-06T06:55:37.114Z,36.30
2019-04-06T06:56:40.868Z,34.38
2019-04-06T06:57:44.666Z,33.83
2019-04-06T06:58:48.245Z,37.63
2019-04-06T06:59:51.901Z,36.65
2019-04-06T07:00:55.508Z,36.05
2019-04-06T07:01:59.216Z,36.83
2019-04-06T07:03:02.826Z,36.08
2019-04-06T07:04:06.508Z,36.45
2019-04-06T07:05:10.228Z,35.78
2019-04-06T07:06:13.836Z,36.53
2019-04-06T07:07:17.437Z,36.20
2019-04-06T07:08:21.035Z,36.63
2019-04-06T07:09:24.643Z,34.95
2019-04-06T07:10:28.313Z,36.15
2019-04-06T07:11:31.991Z,35.60
2019-04-06T07:12:35.788Z,35.28
2019-04-06T07:13:39.440Z,35.50
2019-04-06T07:14:43.053Z,35.23
2019-04-06T07:15:46.702Z,37.20
2019-04-06T07:16:50.319Z,43.80
2019-04-06T07:17:53.961Z,53.02
2019-04-06T07:18:57.586Z,47.75
2019-04-06T07:20:01.195Z,38.42
2019-04-06T07:21:05.089Z,39.85
2019-04-06T07:22:08.779Z,37.78
2019-04-06T07:23:12.435Z,37.03
2019-04-06T07:24:16.058Z,36.40
2019-04-06T07:25:19.707Z,37.95
2019-04-06T07:26:23.355Z,35.52
2019-04-06T07:27:26.954Z,38.42
2019-04-06T07:28:37.852Z,37.65
2019-04-06T07:29:35.850Z,35.75
2019-04-06T07:30:39.589Z,36.93
2019-04-06T07:31:43.381Z,37.20
2019-04-06T07:32:46.981Z,38.30
2019-04-06T07:33:50.608Z,37.40
2019-04-06T07:34:54.222Z,37.65
2019-04-06T07:35:58.172Z,38.83
2019-04-06T07:37:01.776Z,37.15
2019-04-06T07:38:05.395Z,38.10
2019-04-06T07:39:09.395Z,36.90
2019-04-06T07:40:13.489Z,38.10
2019-04-06T07:41:17.107Z,37.30
2019-04-06T07:42:20.714Z,38.90
2019-04-06T07:43:24.323Z,38.45
2019-04-06T07:44:27.984Z,35.83
2019-04-06T07:45:31.580Z,36.25
2019-04-06T07:46:35.193Z,37.28
2019-04-06T07:47:38.815Z,38.35
2019-04-06T07:48:42.412Z,37.17
2019-04-06T07:49:46.431Z,35.50
2019-04-06T07:50:50.392Z,37.53
2019-04-06T07:51:53.991Z,36.23
2019-04-06T07:52:57.620Z,36.38
2019-04-06T07:54:01.270Z,36.53
2019-04-06T07:55:06.925Z,36.93
2019-04-06T07:56:10.525Z,34.98
2019-04-06T07:57:14.381Z,35.58
2019-04-06T07:58:18.007Z,36.53
2019-04-06T07:59:21.672Z,34.83
2019-04-06T08:00:25.354Z,35.35
2019-04-06T08:01:29.108Z,36.93
2019-04-06T08:02:32.698Z,35.88
2019-04-06T08:03:36.356Z,35.85
2019-04-06T08:04:39.962Z,35.58
2019-04-06T08:05:43.671Z,34.67
2019-04-06T08:06:47.447Z,34.80
2019-04-06T08:07:51.087Z,35.13
2019-04-06T08:08:54.743Z,37.60
2019-04-06T08:09:58.347Z,36.33
2019-04-06T08:11:01.954Z,35.60
2019-04-06T08:12:05.707Z,36.50
2019-04-06T08:13:09.311Z,34.25
2019-04-06T08:14:12.981Z,36.10
2019-04-06T08:15:16.725Z,36.20
2019-04-06T08:16:20.379Z,35.75
2019-04-06T08:17:24.478Z,36.45
2019-04-06T08:18:28.148Z,36.20
2019-04-06T08:19:31.860Z,35.65
2019-04-06T08:20:35.425Z,34.98
2019-04-06T08:21:39.043Z,37.13
2019-04-06T08:22:42.708Z,36.25
2019-04-06T08:23:46.325Z,34.35
2019-04-06T08:24:49.939Z,35.95
2019-04-06T08:25:53.554Z,34.60
2019-04-06T08:26:57.168Z,34.48
2019-04-06T08:28:00.842Z,36.03
2019-04-06T08:29:04.499Z,32.33
2019-04-06T08:30:10.113Z,36.25
2019-04-06T08:31:13.898Z,34.15
2019-04-06T08:32:17.604Z,33.60
2019-04-06T08:33:21.409Z,33.50
2019-04-06T08:34:25.029Z,33.60
2019-04-06T08:35:28.715Z,32.78
2019-04-06T08:36:32.374Z,34.10
2019-04-06T08:37:36.019Z,33.90
2019-04-06T08:38:39.687Z,33.83
2019-04-06T08:39:43.307Z,34.75
2019-04-06T08:40:47.540Z,33.73
2019-04-06T08:41:51.245Z,35.20
2019-04-06T08:42:54.921Z,34.25
2019-04-06T08:43:58.530Z,32.65
2019-04-06T08:45:02.224Z,33.60
2019-04-06T08:46:05.917Z,32.08
2019-04-06T08:47:09.532Z,32.50
2019-04-06T08:48:13.380Z,32.93
2019-04-06T08:49:17.036Z,32.63
2019-04-06T08:50:20.632Z,32.80
2019-04-06T08:51:24.293Z,33.08
2019-04-06T08:52:27.862Z,31.10
2019-04-06T08:53:31.520Z,31.12
2019-04-06T08:54:35.122Z,30.75
2019-04-06T08:55:38.868Z,32.23
2019-04-06T08:56:42.544Z,31.30
2019-04-06T08:57:46.135Z,31.68
2019-04-06T08:58:50.027Z,30.95
2019-04-06T08:59:53.880Z,31.33
2019-04-06T09:00:57.475Z,30.52
2019-04-06T09:02:00.960Z,30.60
2019-04-06T09:03:04.707Z,30.85
2019-04-06T09:04:08.376Z,31.60
2019-04-06T09:05:12.172Z,31.50
2019-04-06T09:06:16.212Z,30.00
2019-04-06T09:07:20.100Z,32.45
2019-04-06T09:08:23.717Z,30.37
2019-04-06T09:09:27.678Z,31.45
2019-04-06T09:10:31.357Z,30.45
2019-04-06T09:11:34.961Z,29.80
2019-04-06T09:12:38.573Z,32.25
2019-04-06T09:13:42.184Z,31.93
2019-04-06T09:14:45.802Z,31.85
2019-04-06T09:15:49.551Z,31.15
2019-04-06T09:16:53.249Z,31.02
2019-04-06T09:17:56.858Z,31.65
2019-04-06T09:19:00.519Z,34.43
2019-04-06T09:20:06.433Z,33.60
2019-04-06T09:21:10.093Z,32.73
2019-04-06T09:22:13.820Z,30.68
2019-04-06T09:23:17.414Z,30.10
2019-04-06T09:24:21.240Z,31.45
2019-04-06T09:25:24.834Z,30.05
2019-04-06T09:26:28.747Z,32.00
2019-04-06T09:27:32.305Z,31.82
2019-04-06T09:28:35.920Z,32.53
2019-04-06T09:29:39.541Z,30.75
2019-04-06T09:30:43.156Z,31.20
2019-04-06T09:31:46.809Z,30.00
2019-04-06T09:32:50.428Z,31.50
2019-04-06T09:33:54.048Z,31.87
2019-04-06T09:34:57.668Z,30.60
2019-04-06T09:36:02.425Z,30.57
2019-04-06T09:37:06.264Z,30.80
2019-04-06T09:38:11.525Z,30.50
2019-04-06T09:39:15.139Z,31.30
2019-04-06T09:40:18.763Z,30.65
2019-04-06T09:41:22.369Z,30.97
2019-04-06T09:42:26.282Z,31.10
2019-04-06T09:43:29.837Z,30.43
2019-04-06T09:44:46.885Z,29.70
2019-04-06T09:45:54.699Z,30.50
2019-04-06T09:47:02.437Z,28.73
2019-04-06T09:48:07.927Z,29.30
2019-04-06T09:49:13.162Z,28.73
2019-04-06T09:50:33.803Z,28.40
2019-04-06T09:51:55.668Z,28.93
2019-04-06T09:53:03.711Z,29.30
2019-04-06T09:54:14.928Z,28.60
2019-04-06T09:55:20.157Z,29.27
2019-04-06T09:56:27.908Z,28.60
2019-04-06T09:57:35.888Z,28.10
2019-04-06T09:58:57.762Z,26.07
2019-04-06T10:00:03.013Z,28.57
2019-04-06T10:01:08.254Z,26.67
2019-04-06T10:02:16.610Z,27.93
2019-04-06T10:03:33.596Z,26.73
2019-04-06T10:04:38.904Z,28.05
2019-04-06T10:05:49.667Z,26.37
2019-04-06T10:06:57.683Z,25.88
2019-04-06T10:08:05.893Z,27.70
2019-04-06T10:09:13.975Z,26.55
2019-04-06T10:10:35.589Z,25.25
2019-04-06T10:11:43.282Z,24.65
2019-04-06T10:12:57.541Z,29.12
2019-04-06T10:14:17.886Z,27.80
2019-04-06T10:15:35.449Z,31.45
2019-04-06T10:16:49.461Z,30.12
2019-04-06T10:18:11.479Z,31.68
2019-04-06T10:19:16.782Z,29.45
2019-04-06T10:20:28.001Z,31.75
2019-04-06T10:21:33.256Z,30.20
2019-04-06T10:22:41.287Z,33.48
2019-04-06T10:24:04.718Z,34.13
2019-04-06T10:25:15.755Z,34.80
2019-04-06T10:26:26.653Z,31.50
2019-04-06T10:27:48.332Z,33.20
2019-04-06T10:29:10.134Z,33.30
2019-04-06T10:30:34.027Z,32.10
2019-04-06T10:31:39.282Z,33.03
2019-04-06T10:32:56.748Z,31.97
2019-04-06T10:34:02.058Z,31.67
2019-04-06T10:35:23.665Z,31.90
2019-04-06T10:36:31.289Z,32.77
2019-04-06T10:37:39.507Z,31.80
2019-04-06T10:38:50.853Z,31.33
2019-04-06T10:39:56.125Z,31.13
2019-04-06T10:41:06.916Z,31.73
2019-04-06T10:42:12.407Z,29.87
2019-04-06T10:43:20.395Z,25.93
2019-04-06T10:44:25.642Z,26.07
2019-04-06T10:45:36.944Z,28.53
2019-04-06T10:46:42.243Z,27.63
2019-04-06T10:47:50.574Z,27.20
2019-04-06T10:49:01.795Z,28.23
2019-04-06T10:50:20.395Z,24.47
2019-04-06T10:51:41.682Z,23.17
2019-04-06T10:52:50.113Z,20.33
2019-04-06T10:54:10.834Z,21.60
2019-04-06T10:55:22.056Z,21.33
2019-04-06T10:56:43.540Z,20.60
2019-04-06T10:57:48.875Z,20.33
2019-04-06T10:59:06.160Z,20.67
2019-04-06T11:00:18.142Z,21.07
2019-04-06T11:01:35.349Z,20.43
2019-04-06T11:02:43.456Z,19.20
2019-04-06T11:03:49.146Z,20.40
2019-04-06T11:04:54.402Z,20.50
2019-04-06T11:06:11.931Z,20.47
2019-04-06T11:07:32.160Z,19.83
2019-04-06T11:08:46.330Z,19.77
2019-04-06T11:10:00.814Z,22.50
2019-04-06T11:11:11.712Z,21.83
2019-04-06T11:12:35.078Z,22.03
2019-04-06T11:13:40.330Z,21.50
2019-04-06T11:15:01.116Z,21.37
2019-04-06T11:16:06.818Z,18.97
2019-04-06T11:17:28.706Z,21.10
2019-04-06T11:19:00.383Z,19.27
2019-04-06T11:20:17.384Z,19.03
2019-04-06T11:21:34.663Z,19.20
2019-04-06T11:22:42.901Z,20.40
2019-04-06T11:24:03.692Z,19.30
2019-04-06T11:25:11.697Z,19.00
2019-04-06T11:26:19.784Z,20.90
2019-04-06T11:27:30.886Z,20.57
2019-04-06T11:28:36.143Z,18.13
2019-04-06T11:29:50.330Z,18.90
2019-04-06T11:31:07.612Z,17.47
2019-04-06T11:32:29.494Z,17.60
2019-04-06T11:33:43.851Z,16.80
2019-04-06T11:35:01.337Z,19.57
2019-04-06T11:36:21.818Z,20.03
2019-04-06T11:37:29.555Z,17.80
2019-04-06T11:38:34.817Z,18.90
2019-04-06T11:39:56.174Z,19.43
2019-04-06T11:41:10.366Z,18.97
2019-04-06T11:42:30.401Z,18.97
2019-04-06T11:43:44.190Z,17.20
2019-04-06T11:45:01.942Z,19.63
2019-04-06T11:46:07.251Z,17.53
2019-04-06T11:47:12.554Z,17.57
2019-04-06T11:48:33.842Z,18.07
2019-04-06T11:49:39.103Z,16.57
2019-04-06T11:50:47.167Z,18.07
2019-04-06T11:51:52.623Z,16.93
2019-04-06T11:53:00.746Z,17.10
2019-04-06T11:54:21.164Z,17.43
2019-04-06T11:55:35.595Z,16.60
2019-04-06T11:56:40.846Z,17.20
2019-04-06T11:57:55.287Z,16.60
2019-04-06T11:59:06.103Z,16.43
2019-04-06T12:00:27.972Z,16.63
2019-04-06T12:01:42.235Z,17.10
2019-04-06T12:02:47.570Z,15.70
2019-04-06T12:03:58.321Z,16.87
2019-04-06T12:05:03.642Z,16.80
2019-04-06T12:06:14.889Z,16.80
2019-04-06T12:07:22.720Z,15.70
2019-04-06T12:08:27.991Z,15.33
2019-04-06T12:09:45.162Z,17.37
2019-04-06T12:11:02.521Z,15.83
2019-04-06T12:12:24.374Z,16.00
2019-04-06T12:13:47.587Z,16.60
2019-04-06T12:14:55.822Z,16.97
2019-04-06T12:16:10.255Z,15.87
2019-04-06T12:17:15.540Z,16.70
2019-04-06T12:18:27.233Z,16.13
2019-04-06T12:19:38.330Z,15.93
2019-04-06T12:20:49.651Z,16.70
2019-04-06T12:22:03.600Z,17.77
2019-04-06T12:23:25.275Z,15.80
2019-04-06T12:24:30.606Z,16.63
2019-04-06T12:25:52.506Z,16.77
2019-04-06T12:27:00.822Z,16.50
2019-04-06T12:28:08.846Z,16.10
2019-04-06T12:29:30.767Z,16.07
2019-04-06T12:30:39.353Z,17.50
2019-04-06T12:31:56.866Z,16.60
2019-04-06T12:33:04.784Z,16.13
2019-04-06T12:34:12.752Z,15.30
2019-04-06T12:35:34.138Z,15.97
2019-04-06T12:36:55.920Z,16.07
2019-04-06T12:38:04.103Z,16.00
2019-04-06T12:39:21.719Z,15.90
2019-04-06T12:40:30.073Z,15.63
2019-04-06T12:41:51.717Z,14.40
2019-04-06T12:42:57.360Z,15.53
2019-04-06T12:44:14.788Z,15.60
2019-04-06T12:45:20.424Z,15.87
2019-04-06T12:46:25.831Z,15.73
2019-04-06T12:47:33.940Z,17.10
2019-04-06T12:48:39.309Z,17.33
2019-04-06T12:50:02.929Z,16.50
2019-04-06T12:51:08.449Z,17.77
2019-04-06T12:52:29.188Z,17.33
2019-04-06T12:53:37.531Z,16.43
2019-04-06T12:54:45.742Z,16.53
2019-04-06T12:56:07.313Z,17.73
2019-04-06T12:57:28.917Z,18.50
2019-04-06T12:58:42.918Z,17.30
2019-04-06T12:59:51.250Z,17.60
2019-04-06T13:01:12.518Z,17.97
2019-04-06T13:02:34.636Z,17.70
2019-04-06T13:03:56.033Z,18.10
2019-04-06T13:05:16.660Z,17.23
2019-04-06T13:06:39.958Z,16.37
2019-04-06T13:08:01.732Z,17.87
2019-04-06T13:09:15.934Z,18.50
2019-04-06T13:10:24.262Z,17.50
2019-04-06T13:11:44.669Z,16.47
2019-04-06T13:12:58.818Z,16.57
2019-04-06T13:14:20.386Z,16.63
2019-04-06T13:15:28.628Z,16.13
2019-04-06T13:16:42.596Z,15.50
2019-04-06T13:17:47.908Z,16.10
2019-04-06T13:18:55.947Z,16.03
2019-04-06T13:20:07.295Z,16.10
2019-04-06T13:21:12.550Z,15.47
2019-04-06T13:22:33.279Z,15.00
2019-04-06T13:23:38.523Z,14.70
2019-04-06T13:24:58.872Z,13.90
2019-04-06T13:26:20.303Z,15.13
2019-04-06T13:27:28.553Z,15.70
2019-04-06T13:28:50.293Z,14.73
2019-04-06T13:30:01.738Z,15.60
2019-04-06T13:31:12.756Z,15.07
2019-04-06T13:32:18.038Z,16.10
2019-04-06T13:33:29.286Z,14.70
2019-04-06T13:34:51.105Z,14.70
2019-04-06T13:35:59.121Z,15.80
2019-04-06T13:37:04.377Z,14.47
2019-04-06T13:38:25.634Z,14.27
2019-04-06T13:39:40.022Z,13.17
2019-04-06T13:40:54.093Z,13.40
2019-04-06T13:41:59.785Z,12.37
2019-04-06T13:43:13.901Z,11.80
2019-04-06T13:44:19.435Z,12.43
2019-04-06T13:45:24.752Z,11.93
2019-04-06T13:46:32.584Z,11.20
2019-04-06T13:47:43.651Z,12.57
2019-04-06T13:49:07.078Z,11.63
2019-04-06T13:50:21.942Z,11.57
2019-04-06T13:51:29.836Z,11.07
2019-04-06T13:52:35.273Z,13.90
2019-04-06T13:53:40.631Z,13.60
2019-04-06T13:55:02.458Z,12.80
2019-04-06T13:56:24.115Z,12.10
2019-04-06T13:57:35.395Z,13.20
2019-04-06T13:58:43.443Z,12.80
2019-04-06T13:59:51.483Z,12.77
2019-04-06T14:01:16.337Z,12.80
2019-04-06T14:02:27.286Z,11.63
2019-04-06T14:03:38.372Z,11.97
2019-04-06T14:04:55.633Z,11.43
2019-04-06T14:06:03.990Z,11.90
2019-04-06T14:07:12.362Z,11.90
2019-04-06T14:08:34.168Z,11.20
2019-04-06T14:09:55.973Z,12.10
2019-04-06T14:11:01.332Z,10.43
2019-04-06T14:12:22.641Z,11.40
2019-04-06T14:13:44.222Z,11.77
2019-04-06T14:15:07.607Z,12.03
2019-04-06T14:16:13.198Z,10.63
2019-04-06T14:17:18.793Z,12.47
2019-04-06T14:18:42.324Z,12.67
2019-04-06T14:19:47.586Z,11.30